sensor_id;sensor_type;location;lat;lon;timestamp;pressure;altitude;pressure_sealevel;temperature;humidity
48555;BME280;34336;48.270;16.716;2023-11-25T00:00:53;109325.25;;;18.16;73.11
48555;BME280;34336;48.270;16.716;2023-11-25T00:03:21;109325.25;;;18.16;72.65
48555;BME280;34336;48.270;16.716;2023-11-25T00:05:48;109325.25;;;18.16;71.91
48555;BME280;34336;48.270;16.716;2023-11-25T00:08:16;109325.25;;;18.16;71.33
48555;BME280;34336;48.270;16.716;2023-11-25T00:10:43;109325.25;;;18.16;71.54
48555;BME280;34336;48.270;16.716;2023-11-25T00:13:10;109325.25;;;18.16;71.72
48555;BME280;34336;48.270;16.716;2023-11-25T00:15:38;109325.25;;;18.16;71.55
48555;BME280;34336;48.270;16.716;2023-11-25T00:18:06;109325.25;;;18.16;71.65
48555;BME280;34336;48.270;16.716;2023-11-25T00:20:33;109325.25;;;18.16;71.83
48555;BME280;34336;48.270;16.716;2023-11-25T00:23:04;109325.25;;;18.16;71.30
48555;BME280;34336;48.270;16.716;2023-11-25T00:25:31;109325.25;;;18.16;71.17
48555;BME280;34336;48.270;16.716;2023-11-25T00:27:58;109325.25;;;18.16;70.76
48555;BME280;34336;48.270;16.716;2023-11-25T00:30:26;109325.25;;;18.16;71.38
48555;BME280;34336;48.270;16.716;2023-11-25T00:32:53;109325.25;;;18.16;71.81
48555;BME280;34336;48.270;16.716;2023-11-25T00:35:21;109325.25;;;18.16;71.72
48555;BME280;34336;48.270;16.716;2023-11-25T00:37:48;109325.25;;;18.16;71.41
48555;BME280;34336;48.270;16.716;2023-11-25T00:40:14;109325.25;;;18.16;71.33
48555;BME280;34336;48.270;16.716;2023-11-25T00:42:43;109325.25;;;18.16;71.79
48555;BME280;34336;48.270;16.716;2023-11-25T00:45:10;109325.25;;;18.16;72.43
48555;BME280;34336;48.270;16.716;2023-11-25T00:47:38;109325.25;;;18.16;72.88
48555;BME280;34336;48.270;16.716;2023-11-25T00:50:09;109325.25;;;18.16;73.60
48555;BME280;34336;48.270;16.716;2023-11-25T00:52:36;109325.25;;;18.16;73.73
48555;BME280;34336;48.270;16.716;2023-11-25T00:55:05;109325.25;;;18.16;74.42
48555;BME280;34336;48.270;16.716;2023-11-25T00:57:32;109325.25;;;18.16;74.86
48555;BME280;34336;48.270;16.716;2023-11-25T00:59:59;109325.25;;;18.16;75.35
48555;BME280;34336;48.270;16.716;2023-11-25T01:02:26;109325.25;;;18.16;75.96
48555;BME280;34336;48.270;16.716;2023-11-25T01:04:54;109325.25;;;18.16;76.40
48555;BME280;34336;48.270;16.716;2023-11-25T01:07:21;109325.25;;;18.16;76.82
48555;BME280;34336;48.270;16.716;2023-11-25T01:09:48;109325.25;;;18.16;77.13
48555;BME280;34336;48.270;16.716;2023-11-25T01:12:15;109325.25;;;18.16;77.69
48555;BME280;34336;48.270;16.716;2023-11-25T01:14:42;109325.25;;;18.16;78.22
48555;BME280;34336;48.270;16.716;2023-11-25T01:17:08;109325.25;;;18.16;78.74
48555;BME280;34336;48.270;16.716;2023-11-25T01:19:36;109325.25;;;18.16;79.74
48555;BME280;34336;48.270;16.716;2023-11-25T01:22:03;109325.25;;;18.16;80.27
48555;BME280;34336;48.270;16.716;2023-11-25T01:24:31;109325.25;;;18.16;80.18
48555;BME280;34336;48.270;16.716;2023-11-25T01:26:57;109325.25;;;18.16;79.99
48555;BME280;34336;48.270;16.716;2023-11-25T01:29:25;109325.25;;;18.16;80.22
48555;BME280;34336;48.270;16.716;2023-11-25T01:31:51;109325.25;;;18.16;80.41
48555;BME280;34336;48.270;16.716;2023-11-25T01:34:18;109325.25;;;18.16;80.84
48555;BME280;34336;48.270;16.716;2023-11-25T01:36:45;109325.25;;;18.16;80.66
48555;BME280;34336;48.270;16.716;2023-11-25T01:39:12;109325.25;;;18.16;80.58
48555;BME280;34336;48.270;16.716;2023-11-25T01:41:41;109325.25;;;18.16;80.78
48555;BME280;34336;48.270;16.716;2023-11-25T01:44:10;109325.25;;;18.16;81.15
48555;BME280;34336;48.270;16.716;2023-11-25T01:46:39;109325.25;;;18.16;81.31
48555;BME280;34336;48.270;16.716;2023-11-25T01:49:12;109325.25;;;18.16;82.02
48555;BME280;34336;48.270;16.716;2023-11-25T01:51:45;109325.25;;;18.16;82.35
48555;BME280;34336;48.270;16.716;2023-11-25T01:54:13;109325.25;;;18.16;82.52
48555;BME280;34336;48.270;16.716;2023-11-25T01:56:43;109325.25;;;18.16;82.34
48555;BME280;34336;48.270;16.716;2023-11-25T01:59:13;109325.25;;;18.16;82.81
48555;BME280;34336;48.270;16.716;2023-11-25T02:01:41;109325.25;;;18.16;83.02
48555;BME280;34336;48.270;16.716;2023-11-25T02:04:10;109325.25;;;18.16;83.55
48555;BME280;34336;48.270;16.716;2023-11-25T02:06:37;109325.25;;;18.16;84.58
48555;BME280;34336;48.270;16.716;2023-11-25T02:09:04;109325.25;;;18.16;84.91
48555;BME280;34336;48.270;16.716;2023-11-25T02:11:31;109325.25;;;18.16;85.13
48555;BME280;34336;48.270;16.716;2023-11-25T02:13:58;109325.25;;;18.16;85.44
48555;BME280;34336;48.270;16.716;2023-11-25T02:16:25;109325.25;;;18.16;85.96
48555;BME280;34336;48.270;16.716;2023-11-25T02:18:52;109325.25;;;18.16;86.12
48555;BME280;34336;48.270;16.716;2023-11-25T02:21:19;109325.25;;;18.16;86.29
48555;BME280;34336;48.270;16.716;2023-11-25T02:23:46;109325.25;;;18.16;86.12
48555;BME280;34336;48.270;16.716;2023-11-25T02:26:14;109325.25;;;18.16;86.14
48555;BME280;34336;48.270;16.716;2023-11-25T02:28:40;109325.25;;;18.16;86.02
48555;BME280;34336;48.270;16.716;2023-11-25T02:31:08;109325.25;;;18.16;86.44
48555;BME280;34336;48.270;16.716;2023-11-25T02:33:34;109325.25;;;18.16;86.04
48555;BME280;34336;48.270;16.716;2023-11-25T02:36:02;109325.25;;;18.16;86.08
48555;BME280;34336;48.270;16.716;2023-11-25T02:38:29;109325.25;;;18.16;86.01
48555;BME280;34336;48.270;16.716;2023-11-25T02:40:57;109325.25;;;18.16;86.42
48555;BME280;34336;48.270;16.716;2023-11-25T02:43:23;109325.25;;;18.16;86.49
48555;BME280;34336;48.270;16.716;2023-11-25T02:45:50;109325.25;;;18.16;85.99
48555;BME280;34336;48.270;16.716;2023-11-25T02:48:17;109325.25;;;18.16;85.18
48555;BME280;34336;48.270;16.716;2023-11-25T02:50:44;109325.25;;;18.16;84.45
48555;BME280;34336;48.270;16.716;2023-11-25T02:53:11;109325.25;;;18.16;84.54
48555;BME280;34336;48.270;16.716;2023-11-25T02:55:38;109325.25;;;18.16;84.16
48555;BME280;34336;48.270;16.716;2023-11-25T02:58:04;109325.25;;;18.16;84.56
48555;BME280;34336;48.270;16.716;2023-11-25T03:00:32;109325.25;;;18.16;84.64
48555;BME280;34336;48.270;16.716;2023-11-25T03:03:03;109325.25;;;18.16;84.69
48555;BME280;34336;48.270;16.716;2023-11-25T03:05:40;109325.25;;;18.16;84.09
48555;BME280;34336;48.270;16.716;2023-11-25T03:08:13;109325.25;;;18.16;84.16
48555;BME280;34336;48.270;16.716;2023-11-25T03:10:40;109325.25;;;18.16;84.08
48555;BME280;34336;48.270;16.716;2023-11-25T03:13:11;109325.25;;;18.16;83.84
48555;BME280;34336;48.270;16.716;2023-11-25T03:15:38;109325.25;;;18.16;84.11
48555;BME280;34336;48.270;16.716;2023-11-25T03:18:06;109325.25;;;18.16;83.55
48555;BME280;34336;48.270;16.716;2023-11-25T03:20:35;109325.25;;;18.16;83.05
48555;BME280;34336;48.270;16.716;2023-11-25T03:23:02;109325.25;;;18.16;83.27
48555;BME280;34336;48.270;16.716;2023-11-25T03:25:30;109325.25;;;18.16;83.04
48555;BME280;34336;48.270;16.716;2023-11-25T03:28:00;109325.25;;;18.16;83.20
48555;BME280;34336;48.270;16.716;2023-11-25T03:30:32;109325.25;;;18.16;83.34
48555;BME280;34336;48.270;16.716;2023-11-25T03:32:59;109325.25;;;18.16;83.66
48555;BME280;34336;48.270;16.716;2023-11-25T03:35:27;109325.25;;;18.16;83.68
48555;BME280;34336;48.270;16.716;2023-11-25T03:37:54;109325.25;;;18.16;83.64
48555;BME280;34336;48.270;16.716;2023-11-25T03:40:21;109325.25;;;18.16;83.70
48555;BME280;34336;48.270;16.716;2023-11-25T03:42:48;109325.25;;;18.16;83.50
48555;BME280;34336;48.270;16.716;2023-11-25T03:45:16;109325.25;;;18.16;83.67
48555;BME280;34336;48.270;16.716;2023-11-25T03:47:44;109325.25;;;18.16;84.02
48555;BME280;34336;48.270;16.716;2023-11-25T03:50:11;109325.25;;;18.16;84.23
48555;BME280;34336;48.270;16.716;2023-11-25T03:52:39;109325.25;;;18.16;83.16
48555;BME280;34336;48.270;16.716;2023-11-25T03:55:08;109325.25;;;18.16;82.81
48555;BME280;34336;48.270;16.716;2023-11-25T03:57:38;109325.25;;;18.16;82.81
48555;BME280;34336;48.270;16.716;2023-11-25T04:00:05;109325.25;;;18.16;83.08
48555;BME280;34336;48.270;16.716;2023-11-25T04:02:42;109325.25;;;18.16;82.47
48555;BME280;34336;48.270;16.716;2023-11-25T04:05:10;109325.25;;;18.16;82.70
48555;BME280;34336;48.270;16.716;2023-11-25T04:07:37;109325.25;;;18.16;82.44
48555;BME280;34336;48.270;16.716;2023-11-25T04:10:08;109325.25;;;18.16;82.60
48555;BME280;34336;48.270;16.716;2023-11-25T04:12:49;109325.25;;;18.16;81.57
48555;BME280;34336;48.270;16.716;2023-11-25T04:15:18;109325.25;;;18.16;81.54
48555;BME280;34336;48.270;16.716;2023-11-25T04:17:48;109325.25;;;18.16;81.22
48555;BME280;34336;48.270;16.716;2023-11-25T04:20:17;109325.25;;;18.16;81.33
48555;BME280;34336;48.270;16.716;2023-11-25T04:22:57;109325.25;;;18.16;81.65
48555;BME280;34336;48.270;16.716;2023-11-25T04:25:26;109325.25;;;18.16;81.39
48555;BME280;34336;48.270;16.716;2023-11-25T04:27:53;109325.25;;;18.16;82.00
48555;BME280;34336;48.270;16.716;2023-11-25T04:30:20;109325.25;;;18.16;81.08
48555;BME280;34336;48.270;16.716;2023-11-25T04:32:46;109325.25;;;18.16;81.39
48555;BME280;34336;48.270;16.716;2023-11-25T04:35:17;109325.25;;;18.16;81.64
48555;BME280;34336;48.270;16.716;2023-11-25T04:37:45;109325.25;;;18.16;81.25
48555;BME280;34336;48.270;16.716;2023-11-25T04:40:13;109325.25;;;18.16;81.09
48555;BME280;34336;48.270;16.716;2023-11-25T04:42:41;109325.25;;;18.16;80.75
48555;BME280;34336;48.270;16.716;2023-11-25T04:45:08;109325.25;;;18.16;80.60
48555;BME280;34336;48.270;16.716;2023-11-25T04:47:43;109325.25;;;18.16;80.48
48555;BME280;34336;48.270;16.716;2023-11-25T04:50:13;109325.25;;;18.16;79.99
48555;BME280;34336;48.270;16.716;2023-11-25T04:52:41;109325.25;;;18.16;79.41
48555;BME280;34336;48.270;16.716;2023-11-25T04:55:09;109325.25;;;18.16;79.73
48555;BME280;34336;48.270;16.716;2023-11-25T04:57:36;109325.25;;;18.16;78.96
48555;BME280;34336;48.270;16.716;2023-11-25T05:00:05;109325.25;;;18.16;78.15
48555;BME280;34336;48.270;16.716;2023-11-25T05:02:37;109325.25;;;18.16;77.42
48555;BME280;34336;48.270;16.716;2023-11-25T05:05:04;109325.25;;;18.16;77.74
48555;BME280;34336;48.270;16.716;2023-11-25T05:07:31;109325.25;;;18.16;77.17
48555;BME280;34336;48.270;16.716;2023-11-25T05:09:59;109325.25;;;18.16;76.86
48555;BME280;34336;48.270;16.716;2023-11-25T05:12:27;109325.25;;;18.16;76.79
48555;BME280;34336;48.270;16.716;2023-11-25T05:14:54;109325.25;;;18.16;76.70
48555;BME280;34336;48.270;16.716;2023-11-25T05:17:21;109325.25;;;18.16;76.18
48555;BME280;34336;48.270;16.716;2023-11-25T05:19:48;109325.25;;;18.16;76.14
48555;BME280;34336;48.270;16.716;2023-11-25T05:22:15;109325.25;;;18.16;75.95
48555;BME280;34336;48.270;16.716;2023-11-25T05:24:42;109325.25;;;18.16;75.49
48555;BME280;34336;48.270;16.716;2023-11-25T05:27:09;109325.25;;;18.16;75.97
48555;BME280;34336;48.270;16.716;2023-11-25T05:29:36;109325.25;;;18.16;76.57
48555;BME280;34336;48.270;16.716;2023-11-25T05:32:02;109325.25;;;18.16;77.08
48555;BME280;34336;48.270;16.716;2023-11-25T05:34:30;109325.25;;;18.16;77.45
48555;BME280;34336;48.270;16.716;2023-11-25T05:36:57;109325.25;;;18.16;77.74
48555;BME280;34336;48.270;16.716;2023-11-25T05:39:24;109325.25;;;18.16;78.31
48555;BME280;34336;48.270;16.716;2023-11-25T05:41:51;109325.25;;;18.16;78.04
48555;BME280;34336;48.270;16.716;2023-11-25T05:44:19;109325.25;;;18.16;78.24
48555;BME280;34336;48.270;16.716;2023-11-25T05:46:47;109325.25;;;18.16;78.17
48555;BME280;34336;48.270;16.716;2023-11-25T05:49:14;109325.25;;;18.16;78.38
48555;BME280;34336;48.270;16.716;2023-11-25T05:51:40;109325.25;;;18.16;78.42
48555;BME280;34336;48.270;16.716;2023-11-25T05:54:12;109325.25;;;18.16;78.09
48555;BME280;34336;48.270;16.716;2023-11-25T05:56:44;109325.25;;;18.16;78.73
48555;BME280;34336;48.270;16.716;2023-11-25T05:59:11;109325.25;;;18.16;78.45
48555;BME280;34336;48.270;16.716;2023-11-25T06:01:38;109325.25;;;18.16;77.97
48555;BME280;34336;48.270;16.716;2023-11-25T06:04:05;109325.25;;;18.16;77.32
48555;BME280;34336;48.270;16.716;2023-11-25T06:06:32;109325.25;;;18.16;76.57
48555;BME280;34336;48.270;16.716;2023-11-25T06:08:58;109325.25;;;18.16;76.50
48555;BME280;34336;48.270;16.716;2023-11-25T06:11:26;109325.25;;;18.16;76.29
48555;BME280;34336;48.270;16.716;2023-11-25T06:13:56;109325.25;;;18.16;76.78
48555;BME280;34336;48.270;16.716;2023-11-25T06:16:24;109325.25;;;18.16;76.40
48555;BME280;34336;48.270;16.716;2023-11-25T06:18:56;109325.25;;;18.16;75.37
48555;BME280;34336;48.270;16.716;2023-11-25T06:21:23;109325.25;;;18.16;74.54
48555;BME280;34336;48.270;16.716;2023-11-25T06:23:50;109325.25;;;18.16;74.11
48555;BME280;34336;48.270;16.716;2023-11-25T06:26:17;109325.25;;;18.16;73.43
48555;BME280;34336;48.270;16.716;2023-11-25T06:28:46;109325.25;;;18.16;73.33
48555;BME280;34336;48.270;16.716;2023-11-25T06:31:14;109325.25;;;18.16;73.44
48555;BME280;34336;48.270;16.716;2023-11-25T06:33:41;109325.25;;;18.16;72.72
48555;BME280;34336;48.270;16.716;2023-11-25T06:36:08;109325.25;;;18.16;72.18
48555;BME280;34336;48.270;16.716;2023-11-25T06:38:35;109325.25;;;18.16;72.30
48555;BME280;34336;48.270;16.716;2023-11-25T06:41:02;109325.25;;;18.16;72.14
48555;BME280;34336;48.270;16.716;2023-11-25T06:43:29;109325.25;;;18.16;72.48
48555;BME280;34336;48.270;16.716;2023-11-25T06:45:56;109325.25;;;18.16;72.59
48555;BME280;34336;48.270;16.716;2023-11-25T06:48:23;109325.25;;;18.16;72.55
48555;BME280;34336;48.270;16.716;2023-11-25T06:50:51;109325.25;;;18.16;73.10
48555;BME280;34336;48.270;16.716;2023-11-25T06:53:18;109325.25;;;18.16;73.76
48555;BME280;34336;48.270;16.716;2023-11-25T06:55:46;109325.25;;;18.16;73.06
48555;BME280;34336;48.270;16.716;2023-11-25T06:58:13;109325.25;;;18.16;72.02
48555;BME280;34336;48.270;16.716;2023-11-25T07:00:41;109325.25;;;18.16;70.31
48555;BME280;34336;48.270;16.716;2023-11-25T07:03:08;109325.25;;;18.16;69.05
48555;BME280;34336;48.270;16.716;2023-11-25T07:05:35;109325.25;;;18.16;68.78
48555;BME280;34336;48.270;16.716;2023-11-25T07:08:04;109325.25;;;18.16;69.13
48555;BME280;34336;48.270;16.716;2023-11-25T07:10:32;109325.25;;;18.16;69.63
48555;BME280;34336;48.270;16.716;2023-11-25T07:13:05;109325.25;;;18.16;68.58
48555;BME280;34336;48.270;16.716;2023-11-25T07:15:32;109325.25;;;18.16;67.65
48555;BME280;34336;48.270;16.716;2023-11-25T07:17:59;109325.25;;;18.16;67.50
48555;BME280;34336;48.270;16.716;2023-11-25T07:20:26;109325.25;;;18.16;67.84
48555;BME280;34336;48.270;16.716;2023-11-25T07:22:54;109325.25;;;18.16;67.48
48555;BME280;34336;48.270;16.716;2023-11-25T07:25:21;109325.25;;;18.16;65.99
48555;BME280;34336;48.270;16.716;2023-11-25T07:27:48;109325.25;;;18.16;64.72
48555;BME280;34336;48.270;16.716;2023-11-25T07:30:15;109325.25;;;18.16;64.61
48555;BME280;34336;48.270;16.716;2023-11-25T07:32:43;109325.25;;;18.16;63.85
48555;BME280;34336;48.270;16.716;2023-11-25T07:35:11;109325.25;;;18.16;63.55
48555;BME280;34336;48.270;16.716;2023-11-25T07:37:39;109325.25;;;18.16;63.25
48555;BME280;34336;48.270;16.716;2023-11-25T07:40:07;109325.25;;;18.16;63.61
48555;BME280;34336;48.270;16.716;2023-11-25T07:42:44;109325.25;;;18.16;63.77
48555;BME280;34336;48.270;16.716;2023-11-25T07:45:15;109325.25;;;18.16;63.64
48555;BME280;34336;48.270;16.716;2023-11-25T07:47:43;109325.25;;;18.16;62.72
48555;BME280;34336;48.270;16.716;2023-11-25T07:50:11;109325.25;;;18.16;62.34
48555;BME280;34336;48.270;16.716;2023-11-25T07:52:37;109325.25;;;18.16;62.68
48555;BME280;34336;48.270;16.716;2023-11-25T07:55:05;109325.25;;;18.16;61.56
48555;BME280;34336;48.270;16.716;2023-11-25T07:57:32;109325.25;;;18.16;62.46
48555;BME280;34336;48.270;16.716;2023-11-25T07:59:59;109325.25;;;18.16;61.09
48555;BME280;34336;48.270;16.716;2023-11-25T08:02:26;109325.25;;;18.16;61.04
48555;BME280;34336;48.270;16.716;2023-11-25T08:04:53;109325.25;;;18.16;61.72
48555;BME280;34336;48.270;16.716;2023-11-25T08:07:20;109325.25;;;18.16;61.61
48555;BME280;34336;48.270;16.716;2023-11-25T08:09:46;109325.25;;;18.16;61.47
48555;BME280;34336;48.270;16.716;2023-11-25T08:12:13;109325.25;;;18.16;60.10
48555;BME280;34336;48.270;16.716;2023-11-25T08:14:40;109325.25;;;18.16;59.95
48555;BME280;34336;48.270;16.716;2023-11-25T08:17:07;109325.25;;;18.16;58.46
48555;BME280;34336;48.270;16.716;2023-11-25T08:19:34;109325.25;;;18.16;58.80
48555;BME280;34336;48.270;16.716;2023-11-25T08:22:01;109325.25;;;18.16;57.85
48555;BME280;34336;48.270;16.716;2023-11-25T08:24:27;109325.25;;;18.16;58.31
48555;BME280;34336;48.270;16.716;2023-11-25T08:26:54;109325.25;;;18.16;57.96
48555;BME280;34336;48.270;16.716;2023-11-25T08:29:21;109325.25;;;18.16;57.29
48555;BME280;34336;48.270;16.716;2023-11-25T08:31:48;109325.25;;;18.16;57.53
48555;BME280;34336;48.270;16.716;2023-11-25T08:34:14;109325.25;;;18.16;57.74
48555;BME280;34336;48.270;16.716;2023-11-25T08:36:41;109325.25;;;18.16;57.91
48555;BME280;34336;48.270;16.716;2023-11-25T08:39:14;109325.25;;;18.16;55.61
48555;BME280;34336;48.270;16.716;2023-11-25T08:41:41;109325.25;;;18.16;56.28
48555;BME280;34336;48.270;16.716;2023-11-25T08:44:10;109325.25;;;18.16;56.08
48555;BME280;34336;48.270;16.716;2023-11-25T08:46:40;109325.25;;;18.16;55.91
48555;BME280;34336;48.270;16.716;2023-11-25T08:49:12;109325.25;;;18.16;55.23
48555;BME280;34336;48.270;16.716;2023-11-25T08:51:43;109325.25;;;18.16;54.87
48555;BME280;34336;48.270;16.716;2023-11-25T08:54:13;109325.25;;;18.16;55.31
48555;BME280;34336;48.270;16.716;2023-11-25T08:56:41;109325.25;;;18.16;55.34
48555;BME280;34336;48.270;16.716;2023-11-25T08:59:12;109325.25;;;18.16;55.74
48555;BME280;34336;48.270;16.716;2023-11-25T09:01:44;109325.25;;;18.16;55.08
48555;BME280;34336;48.270;16.716;2023-11-25T09:04:13;109325.25;;;18.16;54.84
48555;BME280;34336;48.270;16.716;2023-11-25T09:06:46;109325.25;;;18.16;55.71
48555;BME280;34336;48.270;16.716;2023-11-25T09:09:16;109325.25;;;18.16;56.12
48555;BME280;34336;48.270;16.716;2023-11-25T09:11:43;109325.25;;;18.16;55.64
48555;BME280;34336;48.270;16.716;2023-11-25T09:14:10;109325.25;;;18.16;55.29
48555;BME280;34336;48.270;16.716;2023-11-25T09:16:37;109325.25;;;18.16;55.39
48555;BME280;34336;48.270;16.716;2023-11-25T09:19:04;109325.25;;;18.16;55.39
48555;BME280;34336;48.270;16.716;2023-11-25T09:21:31;109325.25;;;18.16;55.81
48555;BME280;34336;48.270;16.716;2023-11-25T09:23:58;109325.25;;;18.16;56.60
48555;BME280;34336;48.270;16.716;2023-11-25T09:26:25;109325.25;;;18.16;56.24
48555;BME280;34336;48.270;16.716;2023-11-25T09:28:52;109325.25;;;18.16;55.87
48555;BME280;34336;48.270;16.716;2023-11-25T09:31:22;109325.25;;;18.16;55.95
48555;BME280;34336;48.270;16.716;2023-11-25T09:33:50;109325.25;;;18.16;55.93
48555;BME280;34336;48.270;16.716;2023-11-25T09:36:18;109325.25;;;18.16;55.98
48555;BME280;34336;48.270;16.716;2023-11-25T09:38:45;109325.25;;;18.16;56.06
48555;BME280;34336;48.270;16.716;2023-11-25T09:41:12;109325.25;;;18.16;56.77
48555;BME280;34336;48.270;16.716;2023-11-25T09:43:38;109325.25;;;18.16;56.81
48555;BME280;34336;48.270;16.716;2023-11-25T09:46:06;109325.25;;;18.16;56.72
48555;BME280;34336;48.270;16.716;2023-11-25T09:48:33;109325.25;;;18.16;56.67
48555;BME280;34336;48.270;16.716;2023-11-25T09:51:01;109325.25;;;18.16;56.64
48555;BME280;34336;48.270;16.716;2023-11-25T09:53:30;109325.25;;;18.16;55.45
48555;BME280;34336;48.270;16.716;2023-11-25T09:56:02;109325.25;;;18.16;55.79
48555;BME280;34336;48.270;16.716;2023-11-25T09:58:35;109325.25;;;18.16;55.63
48555;BME280;34336;48.270;16.716;2023-11-25T10:01:05;109325.25;;;18.16;55.84
48555;BME280;34336;48.270;16.716;2023-11-25T10:03:34;109325.25;;;18.16;55.26
48555;BME280;34336;48.270;16.716;2023-11-25T10:06:02;109325.25;;;18.16;55.62
48555;BME280;34336;48.270;16.716;2023-11-25T10:08:30;109325.25;;;18.16;55.18
48555;BME280;34336;48.270;16.716;2023-11-25T10:11:07;109325.25;;;18.16;56.01
48555;BME280;34336;48.270;16.716;2023-11-25T10:13:36;109325.25;;;18.16;55.90
48555;BME280;34336;48.270;16.716;2023-11-25T10:16:05;109325.25;;;18.16;56.06
48555;BME280;34336;48.270;16.716;2023-11-25T10:18:33;109325.25;;;18.16;56.58
48555;BME280;34336;48.270;16.716;2023-11-25T10:21:07;109325.25;;;18.16;56.87
48555;BME280;34336;48.270;16.716;2023-11-25T10:23:35;109325.25;;;18.16;56.22
48555;BME280;34336;48.270;16.716;2023-11-25T10:26:03;109325.25;;;18.16;56.90
48555;BME280;34336;48.270;16.716;2023-11-25T10:28:34;109325.25;;;18.16;56.80
48555;BME280;34336;48.270;16.716;2023-11-25T10:31:05;109325.25;;;18.16;57.07
48555;BME280;34336;48.270;16.716;2023-11-25T10:33:32;109325.25;;;18.16;56.61
48555;BME280;34336;48.270;16.716;2023-11-25T10:36:01;109325.25;;;18.16;56.27
48555;BME280;34336;48.270;16.716;2023-11-25T10:38:28;109325.25;;;18.16;56.81
48555;BME280;34336;48.270;16.716;2023-11-25T10:43:26;109325.25;;;18.16;56.21
48555;BME280;34336;48.270;16.716;2023-11-25T10:46:09;109325.25;;;18.16;56.85
48555;BME280;34336;48.270;16.716;2023-11-25T10:48:38;109325.25;;;18.16;56.83
48555;BME280;34336;48.270;16.716;2023-11-25T10:51:08;109325.25;;;18.16;57.09
48555;BME280;34336;48.270;16.716;2023-11-25T10:53:41;109325.25;;;18.16;57.52
48555;BME280;34336;48.270;16.716;2023-11-25T10:56:13;109325.25;;;18.16;58.43
48555;BME280;34336;48.270;16.716;2023-11-25T10:58:40;109325.25;;;18.16;59.79
48555;BME280;34336;48.270;16.716;2023-11-25T11:01:07;109325.25;;;18.16;60.49
48555;BME280;34336;48.270;16.716;2023-11-25T11:06:27;109325.25;;;18.16;60.92
48555;BME280;34336;48.270;16.716;2023-11-25T11:08:55;109325.25;;;18.16;61.20
48555;BME280;34336;48.270;16.716;2023-11-25T11:11:41;109325.25;;;18.16;61.62
48555;BME280;34336;48.270;16.716;2023-11-25T11:14:15;109325.25;;;18.16;61.89
48555;BME280;34336;48.270;16.716;2023-11-25T11:16:49;109325.25;;;18.16;61.27
48555;BME280;34336;48.270;16.716;2023-11-25T11:19:26;109325.25;;;18.16;60.88
48555;BME280;34336;48.270;16.716;2023-11-25T11:22:02;109325.25;;;18.16;61.35
48555;BME280;34336;48.270;16.716;2023-11-25T11:24:44;109325.25;;;18.16;61.04
48555;BME280;34336;48.270;16.716;2023-11-25T11:27:25;109325.25;;;18.16;61.65
48555;BME280;34336;48.270;16.716;2023-11-25T11:32:46;109325.25;;;18.16;62.16
48555;BME280;34336;48.270;16.716;2023-11-25T11:35:14;109325.25;;;18.16;62.17
48555;BME280;34336;48.270;16.716;2023-11-25T11:37:47;109325.25;;;18.16;63.74
48555;BME280;34336;48.270;16.716;2023-11-25T11:40:19;109325.25;;;18.16;66.86
48555;BME280;34336;48.270;16.716;2023-11-25T11:42:47;109325.25;;;18.16;69.98
48555;BME280;34336;48.270;16.716;2023-11-25T11:45:14;109325.25;;;18.16;73.19
48555;BME280;34336;48.270;16.716;2023-11-25T11:47:55;109325.25;;;18.16;77.14
48555;BME280;34336;48.270;16.716;2023-11-25T11:50:26;109325.25;;;18.16;80.17
48555;BME280;34336;48.270;16.716;2023-11-25T11:58:03;109325.25;;;18.16;84.74
48555;BME280;34336;48.270;16.716;2023-11-25T12:00:36;109325.25;;;18.16;84.73
48555;BME280;34336;48.270;16.716;2023-11-25T12:03:03;109325.25;;;18.16;85.44
48555;BME280;34336;48.270;16.716;2023-11-25T12:05:30;109325.25;;;18.16;86.25
48555;BME280;34336;48.270;16.716;2023-11-25T12:07:57;109325.25;;;18.16;84.91
48555;BME280;34336;48.270;16.716;2023-11-25T12:10:24;109325.25;;;18.16;83.78
48555;BME280;34336;48.270;16.716;2023-11-25T12:12:52;109325.25;;;18.16;82.42
48555;BME280;34336;48.270;16.716;2023-11-25T12:15:20;109325.25;;;18.16;80.26
48555;BME280;34336;48.270;16.716;2023-11-25T12:17:47;109325.25;;;18.16;78.83
48555;BME280;34336;48.270;16.716;2023-11-25T12:20:14;109325.25;;;18.16;79.20
48555;BME280;34336;48.270;16.716;2023-11-25T12:22:42;109325.25;;;18.16;78.17
48555;BME280;34336;48.270;16.716;2023-11-25T12:25:10;109325.25;;;18.16;76.04
48555;BME280;34336;48.270;16.716;2023-11-25T12:27:50;109325.25;;;18.16;71.62
48555;BME280;34336;48.270;16.716;2023-11-25T12:30:18;109325.25;;;18.16;67.35
48555;BME280;34336;48.270;16.716;2023-11-25T12:32:45;109325.25;;;18.16;65.44
48555;BME280;34336;48.270;16.716;2023-11-25T12:35:12;109325.25;;;18.16;63.93
48555;BME280;34336;48.270;16.716;2023-11-25T12:37:41;109325.25;;;18.16;64.62
48555;BME280;34336;48.270;16.716;2023-11-25T12:40:20;109325.25;;;18.16;64.59
48555;BME280;34336;48.270;16.716;2023-11-25T12:42:51;109325.25;;;18.16;61.47
48555;BME280;34336;48.270;16.716;2023-11-25T12:47:58;109325.25;;;18.16;61.23
48555;BME280;34336;48.270;16.716;2023-11-25T12:50:26;109325.25;;;18.16;60.53
48555;BME280;34336;48.270;16.716;2023-11-25T12:53:02;109325.25;;;18.16;59.89
48555;BME280;34336;48.270;16.716;2023-11-25T12:55:42;109325.25;;;18.16;59.49
48555;BME280;34336;48.270;16.716;2023-11-25T12:58:16;109325.25;;;18.16;61.26
48555;BME280;34336;48.270;16.716;2023-11-25T13:03:29;109325.25;;;18.16;64.83
48555;BME280;34336;48.270;16.716;2023-11-25T13:08:29;109325.25;;;18.16;67.52